Tiempo atmosférico en la estación meteorológica de Isaba/Izaba, Navarra (820 m.)



Fecha
DESCASC
Temp. máxima en grados centígrados (hora)
DESCASC
Temp. mínima en grados centígrados (hora)
DESCASC
Temp. media en grados centígrados
DESCASC
Racha de viento máxima en m/sg (hora)
DESCASC
Velocidad máxima media en intervalos de 10 minutos(hora)
DESCASC
Precipitaciones diarias en mm
DESCASC
Precipitaciones de 00:00 a 06:00 en mm
DESCASC
Precipitaciones de 06:00 a 12:00 en mm
DESCASC
Precipitaciones de 12:00 a 18:00 en mm
DESCASC
Precipitaciones de 18:00 a 24:00 en mm
DESCASC
02-07-2020 25.4 (13:30) 12.2 (23:50) 18.8 13.33 (18:30) 8.61 (18:10) 0.2 0 0.2 0 0
01-07-2020 29.4 (15:00) 14.1 (23:59) 21.8 8.89 (19:20) 5.83 (15:20) 0 0 0 0 0
30-06-2020 29.4 (17:40) 10.2 (00:00) 19.8 7.5 (14:10) 3.89 (11:30) 0 0 0 0 0
29-06-2020 27.8 (13:30) 12.8 (00:00) 20.3 7.22 (19:00) 5 (14:40) 0 0 0 0 0
28-06-2020 29.2 (17:10) 13.2 (00:00) 21.2 9.44 (19:00) 6.39 (19:00) 0 0 0 0 0
27-06-2020 27.2 (17:10) 9.9 (00:00) 18.6 7.22 (19:50) 4.44 (19:50) 0.2 0 0.2 0 0
26-06-2020 27.6 (14:20) 12 (00:00) 19.8 14.72 (12:30) 6.67 (12:30) 2.4 0 0 0 2.4
25-06-2020 30.1 (14:00) 11.4 (00:00) 20.8 11.94 (20:00) 6.11 (20:00) 14.4 0 0 0 14.4
24-06-2020 32.2 (18:20) 10.7 (00:00) 21.5 10 (18:30) 5.28 (19:40) 0 0 0 0 0
23-06-2020 30.3 (16:20) 8 (00:00) 19.1 7.5 (14:30) 3.33 (14:20) 0 0 0 0 0
22-06-2020 26.6 (13:40) 11.6 (00:00) 19.1 10 (20:50) 6.67 (17:10) 0 0 0 0 0
21-06-2020 26.2 (11:50) 7 (00:00) 16.6 12.78 (19:40) 7.5 (15:20) 0 0 0 0 0
20-06-2020 25.7 (17:50) 7.5 (00:00) 16.6 6.67 (11:30) 3.61 (18:00) 0 0 0 0 0
19-06-2020 24.9 (16:40) 4.8 (00:00) 14.8 8.89 (19:10) 6.11 (19:20) 0 0 0 0 0
18-06-2020 19.5 (16:40) 6.1 (00:00) 12.8 7.78 (18:20) 5.28 (18:30) 4.8 0 4.8 0 0
17-06-2020 19.8 (16:50) 7.3 (00:00) 13.5 9.44 (13:10) 5.83 (13:10) 0 0 0 0 0
16-06-2020 18.6 (12:50) 9.3 (00:00) 14 7.5 (15:30) 4.72 (19:00) 2.6 0 0 2.6 0
15-06-2020 21 (16:20) 8.1 (00:00) 14.6 8.89 (21:20) 5 (19:30) 0 0 0 0 0
14-06-2020 20.8 (16:00) 7.1 (00:00) 13.9 9.17 (18:50) 6.39 (18:40) 0 0 0 0 0
13-06-2020 19.9 (15:50) 6.3 (00:00) 13.1 8.89 (16:50) 5.56 (17:00) 1.8 0 1.2 0.6 0
12-06-2020 13.6 (18:00) 5.4 (00:00) 9.5 12.22 (19:30) 7.22 (10:10) 2.2 0 0 0.2 2
11-06-2020 15.7 (15:50) 7.2 (00:00) 11.4 13.06 (20:00) 6.67 (19:30) 14.4 0.4 0.4 1.8 11.8
10-06-2020 19.1 (13:40) 7.5 (00:00) 13.3 11.11 (10:40) 6.94 (12:20) 0 0 0 0 0
09-06-2020 14.8 (11:30) 6.9 (00:00) 10.9 11.67 (13:30) 7.5 (11:50) 1 0.8 0 0 0.2
08-06-2020 18.5 (15:20) 6.1 (06:50) 12.3 10.56 (09:10) 6.39 (16:40) 0.6 0 0 0 0.6
07-06-2020 13.1 (13:10) 7.5 (00:00) 10.3 16.39 (15:10) 8.61 (15:10) 0.2 0 0.2 0 0
06-06-2020 22.9 (13:50) 5.6 (00:00) 14.2 11.39 (18:20) 7.5 (18:20) 8.6 0 0 0 8.6
05-06-2020 19 (16:50) 7.5 (00:00) 13.3 10 (01:10) 4.72 (14:30) 1 1 0 0 0
04-06-2020 13.4 (14:20) 7.9 (00:00) 10.6 6.67 (15:10) 3.61 (20:00) 4.8 0 0.4 1.8 2.6

Gráficas

Temp. máximas Temp. mínimas Temp. medias Precipitaciones Rachas de viento máximas Velocidades máximas media en intervalos de 10 minutos

Datos horarios

Fecha y hora oficial Temperatura (ºC) Velocidad del viento (km/h) Dirección del viento Racha (km/h) Dirección de racha Precipitación (mm) Presión (hPa) Tendencia (hPa) Humedad (%)
2020-07-03 23:00:00 12.3 10 Nordeste 25 Nordeste 0 -- -- 81
2020-07-03 22:00:00 12.8 9 Nordeste 41 Nordeste 0 -- -- 80
2020-07-03 21:00:00 13.5 14 Nordeste 44 Nordeste 0 -- -- 75
2020-07-03 20:00:00 15.8 14 Nordeste 43 Este 0 -- -- 67
2020-07-03 19:00:00 17.3 24 Nordeste 46 Nordeste 0 -- -- 63
2020-07-03 18:00:00 18.1 26 Nordeste 49 Nordeste 0 -- -- 60
2020-07-03 17:00:00 19.1 29 Nordeste 51 Nordeste 0 -- -- 58
2020-07-03 16:00:00 19.4 28 Nordeste 48 Nordeste 0 -- -- 56
2020-07-03 15:00:00 19.1 28 Nordeste 49 Nordeste 0 -- -- 57
2020-07-03 14:00:00 18.9 28 Nordeste 48 Nordeste 0 -- -- 56
2020-07-03 13:00:00 18 31 Nordeste 51 Nordeste 0 -- -- 58
2020-07-03 12:00:00 17.6 31 Nordeste 47 Nordeste 0 -- -- 59
2020-07-03 11:00:00 16.7 23 Nordeste 42 Nordeste 0 -- -- 58
2020-07-03 10:00:00 15.6 14 Norte 33 Noroeste 0 -- -- 62
2020-07-03 09:00:00 13.9 13 Norte 34 Norte 0 -- -- 69
2020-07-03 08:00:00 11.6 12 Norte 31 Norte 0 -- -- 77
2020-07-03 07:00:00 9.9 11 Norte 33 Nordeste 0 -- -- 84
2020-07-03 06:00:00 10.7 13 Norte 39 Norte 0 -- -- 82
2020-07-03 05:00:00 11.2 14 Norte 37 Nordeste 0 -- -- 85
2020-07-03 04:00:00 11.3 13 Nordeste 31 Este 0 -- -- 86
2020-07-03 03:00:00 11.9 14 Nordeste 36 Nordeste 0 -- -- 86
2020-07-03 02:00:00 12 14 Nordeste 34 Este 0 -- -- 85
2020-07-03 01:00:00 12.3 11 Nordeste 37 Nordeste 0 -- -- 84
2020-07-03 00:00:00 12.2 14 Nordeste 45 Este 0 -- -- 86
2020-07-02 23:00:00 12.7 14 Nordeste 40 Nordeste 0 -- -- 83
2020-07-02 22:00:00 13.2 11 Norte 36 Este 0 -- -- 83
2020-07-02 21:00:00 14.2 17 Nordeste 44 Nordeste 0 -- -- 79
2020-07-02 20:00:00 15 23 Nordeste 46 Este 0 -- -- 76
2020-07-02 19:00:00 17.8 24 Nordeste 48 Nordeste 0 -- -- 66
2020-07-02 18:00:00 19.5 28 Nordeste 46 Nordeste 0 -- -- 63
2020-07-02 17:00:00 21 27 Nordeste 41 Nordeste 0 -- -- 61
2020-07-02 16:00:00 22.4 27 Nordeste 40 Nordeste 0 -- -- 61
2020-07-02 15:00:00 23.6 20 Nordeste 31 Norte 0 -- -- 61
2020-07-02 14:00:00 25.1 12 Nordeste 21 Nordeste 0 -- -- 62
2020-07-02 13:00:00 22.6 11 Norte 20 Norte 0 -- -- 65
2020-07-02 12:00:00 20.1 11 Norte 22 Norte 0 -- -- 72
2020-07-02 11:00:00 21 7 Norte 13 Norte 0 -- -- 70
2020-07-02 10:00:00 19 4 Norte 12 Norte 0 -- -- 81
2020-07-02 09:00:00 17.3 3 Norte 12 Norte 0 -- -- 87
2020-07-02 08:00:00 13.5 5 Norte 13 Norte 0 -- -- 99
2020-07-02 07:00:00 12.7 4 Norte 11 Norte 0.2 -- -- 99
2020-07-02 06:00:00 12.7 6 Norte 19 Noroeste 0 -- -- 98
2020-07-02 05:00:00 13 6 Norte 16 Nordeste 0 -- -- 97
2020-07-02 04:00:00 12.7 5 Norte 13 Norte 0 -- -- 98
2020-07-02 03:00:00 12.8 6 Norte 16 Norte 0 -- -- 97
2020-07-02 02:00:00 13.1 5 Norte 14 Noroeste 0 -- -- 97
2020-07-02 01:00:00 13.5 7 Norte 13 Norte 0 -- -- 96
2020-07-02 00:00:00 14.1 6 Norte 12 Noroeste 0 -- -- 95
2020-07-01 23:00:00 15.1 4 Norte 12 Nordeste 0 -- -- 91
2020-07-01 22:00:00 16.8 9 Nordeste 32 Nordeste 0 -- -- 83
2020-07-01 21:00:00 18.3 17 Nordeste 30 Norte 0 -- -- 79
2020-07-01 20:00:00 22.2 16 Norte 32 Norte 0 -- -- 68
2020-07-01 19:00:00 21.7 10 Nordeste 27 Norte 0 -- -- 76
2020-07-01 18:00:00 24.8 11 Norte 30 Norte 0 -- -- 66
2020-07-01 17:00:00 26.7 20 Norte 30 Norte 0 -- -- 65
2020-07-01 16:00:00 27.7 14 Norte 31 Norte 0 -- -- 63
2020-07-01 15:00:00 29.4 10 Noroeste 28 Noroeste 0 -- -- 60
2020-07-01 14:00:00 28.6 11 Sur 24 Sur 0 -- -- 51
2020-07-01 13:00:00 27.7 9 Sudoeste 24 Sur 0 -- -- 52
2020-07-01 12:00:00 26.7 10 Sudoeste 22 Sur 0 -- -- 60
2020-07-01 11:00:00 23.9 15 Sur 27 Sur 0 -- -- 68
2020-07-01 10:00:00 23.3 2 Sur 9 Sur 0 -- -- 72
2020-07-01 09:00:00 18.7 0 Calma 5 Noroeste 0 -- -- 89
2020-07-01 08:00:00 15.4 0 Calma 9 Norte 0 -- -- 99
2020-07-01 07:00:00 14.6 0 Calma 8 Norte 0 -- -- 100
2020-07-01 06:00:00 14.8 5 Norte 9 Norte 0 -- -- 99
2020-07-01 05:00:00 15.5 4 Norte 11 Norte 0 -- -- 98
2020-07-01 04:00:00 16.3 3 Norte 8 Norte 0 -- -- 98
2020-07-01 03:00:00 17.3 0 Calma 14 Norte 0 -- -- 96
2020-07-01 02:00:00 17.5 4 Norte 8 Norte 0 -- -- 95
2020-07-01 01:00:00 18.4 2 Noroeste 10 Noroeste 0 -- -- 93
2020-07-01 00:00:00 19.1 5 Norte 11 Noroeste 0 -- -- 91
2020-06-30 23:00:00 20.2 4 Norte 17 Norte 0 -- -- 86
2020-06-30 22:00:00 21.3 5 Noroeste 8 Noroeste 0 -- -- 85
2020-06-30 21:00:00 23.2 0 Calma 10 Noroeste 0 -- -- 78
2020-06-30 20:00:00 24.9 4 Noroeste 8 Noroeste 0 -- -- 72
2020-06-30 19:00:00 27.6 5 Oeste 15 Oeste 0 -- -- 57
2020-06-30 18:00:00 29 0 Calma 18 Sudoeste 0 -- -- 54
2020-06-30 17:00:00 27.8 3 Oeste 17 Sudoeste 0 -- -- 59
2020-06-30 16:00:00 28.6 11 Sur 24 Sur 0 -- -- 51
2020-06-30 15:00:00 28.5 10 Sudoeste 27 Sudoeste 0 -- -- 55
2020-06-30 14:00:00 27.2 10 Sudoeste 26 Sudoeste 0 -- -- 59
2020-06-30 13:00:00 26.2 12 Sur 24 Sudoeste 0 -- -- 58
2020-06-30 12:00:00 24.8 13 Sur 24 Sudoeste 0 -- -- 65
2020-06-30 11:00:00 22.4 12 Sur 22 Sur 0 -- -- 70
2020-06-30 10:00:00 20.6 0 Calma 5 Nordeste 0 -- -- 72
2020-06-30 09:00:00 15.2 0 Calma 5 Nordeste 0 -- -- 87
2020-06-30 08:00:00 12.3 0 Calma 6 Noroeste 0 -- -- 99
2020-06-30 07:00:00 10.2 3 Norte 6 Norte 0 -- -- 99
2020-06-30 06:00:00 10.3 4 Norte 9 Norte 0 -- -- 99
2020-06-30 05:00:00 10.8 4 Norte 8 Norte 0 -- -- 99
2020-06-30 04:00:00 11.1 5 Norte 11 Norte 0 -- -- 98
2020-06-30 03:00:00 11.6 5 Norte 10 Nordeste 0 -- -- 98
2020-06-30 02:00:00 12.1 3 Nordeste 9 Nordeste 0 -- -- 97
2020-06-30 01:00:00 12.8 4 Nordeste 10 Norte 0 -- -- 96
2020-06-30 00:00:00 13.5 3 Nordeste 14 Nordeste 0 -- -- 93
2020-06-29 23:00:00 14.7 8 Nordeste 20 Nordeste 0 -- -- 89
2020-06-29 22:00:00 16 12 Nordeste 23 Nordeste 0 -- -- 83
2020-06-29 21:00:00 17.7 15 Nordeste 23 Nordeste 0 -- -- 78
2020-06-29 20:00:00 21.7 14 Nordeste 25 Nordeste 0 -- -- 65
2020-06-29 19:00:00 24.7 16 Norte 26 Norte 0 -- -- 65
2020-06-29 18:00:00 22.2 6 Norte 20 Este 0 -- -- 73
2020-06-29 17:00:00 25.1 13 Nordeste 21 Norte 0 -- -- 63
2020-06-29 16:00:00 24.6 15 Nordeste 23 Nordeste 0 -- -- 64
2020-06-29 15:00:00 25.8 17 Norte 26 Norte 0 -- -- 61
2020-06-29 14:00:00 27.7 13 Norte 23 Noroeste 0 -- -- 59
2020-06-29 13:00:00 26.7 6 Norte 17 Noroeste 0 -- -- 58
2020-06-29 12:00:00 25.1 8 Nordeste 15 Nordeste 0 -- -- 60
2020-06-29 11:00:00 24.8 7 Nordeste 15 Este 0 -- -- 62
2020-06-29 10:00:00 22.7 8 Este 14 Este 0 -- -- 67
2020-06-29 09:00:00 17.5 3 Norte 7 Norte 0 -- -- 82
2020-06-29 08:00:00 13.9 3 Norte 17 Noroeste 0 -- -- 96
2020-06-29 07:00:00 12.8 7 Norte 14 Nordeste 0 -- -- 98
2020-06-29 06:00:00 13.3 4 Norte 18 Norte 0 -- -- 96
2020-06-29 05:00:00 13.7 4 Norte 14 Norte 0 -- -- 95
2020-06-29 04:00:00 13.4 5 Norte 14 Norte 0 -- -- 96
2020-06-29 03:00:00 13.6 5 Norte 15 Noroeste 0 -- -- 95
2020-06-29 02:00:00 13.4 8 Norte 15 Norte 0 -- -- 96
2020-06-29 01:00:00 13.7 7 Norte 13 Norte 0 -- -- 94
2020-06-29 00:00:00 14.4 4 Norte 16 Noroeste 0 -- -- 93
2020-06-28 23:00:00 15.7 5 Norte 18 Nordeste 0 -- -- 87
2020-06-28 22:00:00 17.1 10 Nordeste 25 Nordeste 0 -- -- 78
2020-06-28 21:00:00 18.5 17 Nordeste 29 Nordeste 0 -- -- 76
2020-06-28 20:00:00 21.3 18 Nordeste 32 Nordeste 0 -- -- 69
2020-06-28 19:00:00 23.6 23 Nordeste 34 Nordeste 0 -- -- 63
2020-06-28 18:00:00 27.4 8 Noroeste 22 Noroeste 0 -- -- 57
2020-06-28 17:00:00 29 3 Oeste 23 Sudoeste 0 -- -- 48
2020-06-28 16:00:00 27.6 8 Sur 26 Sur 0 -- -- 49
2020-06-28 15:00:00 27.8 6 Sur 22 Sur 0 -- -- 53
2020-06-28 14:00:00 25 10 Sur 20 Sur 0 -- -- 57
2020-06-28 13:00:00 25.7 8 Sur 24 Sudoeste 0 -- -- 61
2020-06-28 12:00:00 23.4 9 Sudoeste 21 Sur 0 -- -- 65
2020-06-28 11:00:00 22.1 8 Sur 18 Sur 0 -- -- 69
2020-06-28 10:00:00 20 6 Sur 12 Sur 0 -- -- 77
2020-06-28 09:00:00 18.3 0 Calma 5 Norte 0 -- -- 86
2020-06-28 08:00:00 14.3 0 Calma 6 Noroeste 0 -- -- 99
2020-06-28 07:00:00 13.2 4 Norte 9 Norte 0 -- -- 99
2020-06-28 06:00:00 13.6 4 Norte 9 Noroeste 0 -- -- 99
2020-06-28 05:00:00 13.6 3 Norte 8 Norte 0 -- -- 99
2020-06-28 04:00:00 13.6 3 Norte 10 Noroeste 0 -- -- 99
2020-06-28 03:00:00 13.6 4 Norte 8 Noroeste 0 -- -- 98
2020-06-28 02:00:00 14.3 3 Nordeste 15 Norte 0 -- -- 98
2020-06-28 01:00:00 14.7 5 Norte 12 Noroeste 0 -- -- 97
2020-06-28 00:00:00 15.1 5 Norte 10 Norte 0 -- -- 97
2020-06-27 23:00:00 15.6 5 Norte 9 Norte 0 -- -- 95
2020-06-27 22:00:00 16.9 8 Norte 11 Norte 0 -- -- 91
2020-06-27 21:00:00 19.2 4 Nordeste 23 Nordeste 0 -- -- 79
2020-06-27 20:00:00 22.3 15 Nordeste 26 Nordeste 0 -- -- 68
2020-06-27 19:00:00 23.8 10 Norte 22 Norte 0 -- -- 66
2020-06-27 18:00:00 24.1 11 Norte 23 Norte 0 -- -- 60
2020-06-27 17:00:00 27.1 8 Sur 17 Sur 0 -- -- 40
2020-06-27 16:00:00 24.9 7 Sur 21 Sur 0 -- -- 49
2020-06-27 15:00:00 26.3 7 Sudoeste 24 Sur 0 -- -- 44
2020-06-27 14:00:00 26 9 Sudoeste 18 Sur 0 -- -- 48
2020-06-27 13:00:00 24.6 10 Sudoeste 22 Sur 0 -- -- 45
2020-06-27 12:00:00 22.9 12 Sur 25 Sur 0 -- -- 52
2020-06-27 11:00:00 20.5 14 Sur 22 Sur 0 -- -- 64
2020-06-27 10:00:00 17.6 2 Norte 5 Nordeste 0 -- -- 84
2020-06-27 09:00:00 13.3 2 Este 5 Este 0.2 -- -- 98
2020-06-27 08:00:00 10.3 0 Calma 6 Noroeste 0 -- -- 100
2020-06-27 07:00:00 10.1 5 Norte 9 Noroeste 0 -- -- 100
2020-06-27 06:00:00 10.4 5 Norte 8 Noroeste 0 -- -- 100
2020-06-27 05:00:00 10.7 3 Noroeste 10 Norte 0 -- -- 100
2020-06-27 04:00:00 11.3 4 Norte 9 Norte 0 -- -- 100
2020-06-27 03:00:00 11.6 2 Norte 8 Norte 0 -- -- 100
2020-06-27 02:00:00 12.1 2 Norte 8 Norte 0 -- -- 99
2020-06-27 01:00:00 12.7 3 Norte 12 Norte 0 -- -- 99
2020-06-27 00:00:00 13.4 5 Norte 13 Norte 0 -- -- 98
2020-06-26 23:00:00 13.4 2 Norte 10 Oeste 0 -- -- 97
2020-06-26 22:00:00 14.7 2 Sudoeste 19 Sur 2.4 -- -- 94
2020-06-26 21:00:00 17.5 10 Noroeste 17 Nordeste 0 -- -- 83
2020-06-26 20:00:00 21.2 4 Este 31 Sudeste 0 -- -- 61
2020-06-26 19:00:00 21.1 4 Sur 26 Sudeste 0 -- -- 63
2020-06-26 18:00:00 22.6 4 Sur 30 Sudoeste 0 -- -- 58
2020-06-26 17:00:00 24.8 7 Sur 26 Sudoeste 0 -- -- 40
2020-06-26 16:00:00 26.4 11 Sur 28 Sudoeste 0 -- -- 38
2020-06-26 15:00:00 26.5 3 Sudoeste 24 Sudoeste 0 -- -- 43
2020-06-26 14:00:00 26.8 12 Sudoeste 36 Sudoeste 0 -- -- 37
2020-06-26 13:00:00 25.6 19 Sudoeste 53 Oeste 0 -- -- 42
2020-06-26 12:00:00 24.4 22 Sudoeste 44 Oeste 0 -- -- 36
2020-06-26 11:00:00 23.4 11 Sudoeste 24 Sudoeste 0 -- -- 46
2020-06-26 10:00:00 20.5 7 Sur 17 Sudoeste 0 -- -- 77
2020-06-26 09:00:00 15.8 3 Noroeste 17 Noroeste 0 -- -- 98
2020-06-26 08:00:00 12.9 6 Noroeste 14 Noroeste 0 -- -- 100
2020-06-26 07:00:00 12.1 5 Noroeste 22 Norte 0 -- -- 100
2020-06-26 06:00:00 12.6 3 Noroeste 15 Noroeste 0 -- -- 100
2020-06-26 05:00:00 13.1 8 Norte 16 Norte 0 -- -- 100
2020-06-26 04:00:00 13.5 5 Nordeste 13 Norte 0 -- -- 100
2020-06-26 03:00:00 13.3 2 Norte 5 Noroeste 0 -- -- 100
2020-06-26 02:00:00 13.9 2 Norte 5 Norte 0 -- -- 99
2020-06-26 01:00:00 14.2 2 Noroeste 6 Sudoeste 0 -- -- 99
2020-06-26 00:00:00 14.6 8 Norte 21 Noroeste 0 -- -- 99
2020-06-25 23:00:00 14.9 4 Sudoeste 28 Sur 1 -- -- 99
2020-06-25 22:00:00 14.7 4 Noroeste 11 Norte 2 -- -- 99
2020-06-25 21:00:00 14.7 4 Norte 31 Nordeste 2 -- -- 98
2020-06-25 20:00:00 15.2 22 Norte 43 Norte 9.4 -- -- 92
2020-06-25 19:00:00 22.7 15 Nordeste 30 Nordeste 0 -- -- 77
2020-06-25 18:00:00 26.9 11 Nordeste 20 Nordeste 0 -- -- 57
2020-06-25 17:00:00 28.7 12 Norte 25 Norte 0 -- -- 49
2020-06-25 16:00:00 29.8 6 Sudoeste 20 Sudoeste 0 -- -- 40
2020-06-25 15:00:00 29.3 13 Sur 28 Sur 0 -- -- 38
2020-06-25 14:00:00 30.1 7 Sudoeste 19 Sur 0 -- -- 38
2020-06-25 13:00:00 28.6 8 Sudoeste 21 Sur 0 -- -- 40
2020-06-25 12:00:00 27.9 6 Sudeste 12 Este 0 -- -- 42
2020-06-25 11:00:00 23.8 0 Calma 6 Nordeste 0 -- -- 58
2020-06-25 10:00:00 19.1 2 Norte 6 Noroeste 0 -- -- 71
2020-06-25 09:00:00 14.3 4 Norte 8 Norte 0 -- -- 90
2020-06-25 08:00:00 13.9 2 Norte 13 Noroeste 0 -- -- 95
2020-06-25 07:00:00 11.4 4 Norte 12 Norte 0 -- -- 98
2020-06-25 06:00:00 11.7 3 Norte 10 Nordeste 0 -- -- 98
2020-06-25 05:00:00 12.3 3 Norte 12 Nordeste 0 -- -- 97
2020-06-25 04:00:00 12.9 6 Nordeste 17 Nordeste 0 -- -- 95
2020-06-25 03:00:00 13.1 5 Norte 15 Nordeste 0 -- -- 96
2020-06-25 02:00:00 13.4 7 Nordeste 18 Nordeste 0 -- -- 95
2020-06-25 01:00:00 14.2 8 Nordeste 17 Nordeste 0 -- -- 93
2020-06-25 00:00:00 15.4 10 Nordeste 22 Este 0 -- -- 90
2020-06-24 23:00:00 16.3 8 Nordeste 20 Nordeste 0 -- -- 88
2020-06-24 22:00:00 17.2 8 Nordeste 22 Nordeste 0 -- -- 85
2020-06-24 21:00:00 18.5 7 Sur 26 Sur 0 -- -- 70
2020-06-24 20:00:00 19.6 9 Nordeste 35 Nordeste 0 -- -- 64
2020-06-24 19:00:00 23.6 17 Norte 36 Nordeste 0 -- -- 42
2020-06-24 18:00:00 30.4 12 Sur 25 Sudoeste 0 -- -- 37
2020-06-24 17:00:00 31.5 10 Sudoeste 19 Sur 0 -- -- 36
2020-06-24 16:00:00 30.5 10 Sur 25 Sur 0 -- -- 36
2020-06-24 15:00:00 30.1 12 Sudoeste 26 Sudoeste 0 -- -- 35
2020-06-24 14:00:00 30.2 7 Sur 19 Sur 0 -- -- 46
2020-06-24 13:00:00 29 10 Sur 19 Sur 0 -- -- 41
2020-06-24 12:00:00 27.7 10 Sur 16 Sudoeste 0 -- -- 45
2020-06-24 11:00:00 25.8 0 Calma 5 Norte 0 -- -- 60
2020-06-24 10:00:00 21.4 0 Calma 5 Nordeste 0 -- -- 71
2020-06-24 09:00:00 17 0 Calma 8 Norte 0 -- -- 81
2020-06-24 08:00:00 12.5 2 Norte 8 Nordeste 0 -- -- 99
2020-06-24 07:00:00 10.8 3 Norte 13 Norte 0 -- -- 99
2020-06-24 06:00:00 10.8 5 Norte 10 Nordeste 0 -- -- 99
2020-06-24 05:00:00 11.1 3 Norte 12 Norte 0 -- -- 98
2020-06-24 04:00:00 11.5 4 Norte 7 Noroeste 0 -- -- 97
2020-06-24 03:00:00 12.3 2 Norte 8 Norte 0 -- -- 97
2020-06-24 02:00:00 12.8 3 Norte 8 Noroeste 0 -- -- 95
2020-06-24 01:00:00 13.4 5 Norte 10 Norte 0 -- -- 93
2020-06-24 00:00:00 14.2 4 Norte 11 Norte 0 -- -- 91
2020-06-23 23:00:00 15.5 4 Norte 8 Norte 0 -- -- 86
2020-06-23 22:00:00 17.3 4 Norte 7 Norte 0 -- -- 78
2020-06-23 21:00:00 19.8 0 Calma 9 Noroeste 0 -- -- 65
2020-06-23 20:00:00 26.3 6 Noroeste 9 Noroeste 0 -- -- 43
2020-06-23 19:00:00 29.7 0 Calma 12 Sudoeste 0 -- -- 37
2020-06-23 18:00:00 30 6 Sur 17 Sudoeste 0 -- -- 31
2020-06-23 17:00:00 30 8 Sudoeste 18 Sudoeste 0 -- -- 30
2020-06-23 16:00:00 29.5 10 Sudoeste 24 Sur 0 -- -- 34
2020-06-23 15:00:00 29.2 10 Sur 27 Sur 0 -- -- 32
2020-06-23 14:00:00 28.5 11 Sur 21 Sur 0 -- -- 40
2020-06-23 13:00:00 27.5 9 Sudoeste 20 Sur 0 -- -- 42
2020-06-23 12:00:00 25.7 11 Sur 21 Sudoeste 0 -- -- 49
2020-06-23 11:00:00 23.9 3 Nordeste 8 Sur 0 -- -- 57
2020-06-23 10:00:00 18.8 0 Calma 5 Nordeste 0 -- -- 72
2020-06-23 09:00:00 14.2 2 Norte 5 Norte 0 -- -- 81
2020-06-23 08:00:00 9.9 3 Norte 8 Nordeste 0 -- -- 98
2020-06-23 07:00:00 8 4 Norte 9 Nordeste 0 -- -- 98
2020-06-23 06:00:00 8.2 3 Norte 8 Nordeste 0 -- -- 98
2020-06-23 05:00:00 8.7 4 Norte 9 Nordeste 0 -- -- 97
2020-06-23 04:00:00 9.2 4 Norte 8 Nordeste 0 -- -- 97
2020-06-23 03:00:00 9.9 5 Norte 10 Norte 0 -- -- 96
2020-06-23 02:00:00 10.6 6 Norte 14 Norte 0 -- -- 95
2020-06-23 01:00:00 11.2 8 Norte 13 Norte 0 -- -- 95
2020-06-23 00:00:00 12 6 Norte 14 Noroeste 0 -- -- 92
2020-06-22 23:00:00 13.5 8 Norte 13 Norte 0 -- -- 88
2020-06-22 22:00:00 15.9 6 Nordeste 30 Este 0 -- -- 78
2020-06-22 21:00:00 18.2 19 Nordeste 36 Nordeste 0 -- -- 67
2020-06-22 20:00:00 21 21 Nordeste 35 Nordeste 0 -- -- 58
2020-06-22 19:00:00 24 19 Nordeste 35 Nordeste 0 -- -- 46
2020-06-22 18:00:00 24.3 22 Nordeste 36 Nordeste 0 -- -- 44
2020-06-22 17:00:00 25.3 23 Nordeste 34 Nordeste 0 -- -- 48
2020-06-22 16:00:00 26 18 Nordeste 30 Nordeste 0 -- -- 51
2020-06-22 15:00:00 25.9 17 Nordeste 30 Este 0 -- -- 48
2020-06-22 14:00:00 26.6 14 Nordeste 23 Nordeste 0 -- -- 46
2020-06-22 13:00:00 25.7 13 Nordeste 19 Este 0 -- -- 47
2020-06-22 12:00:00 25.2 6 Nordeste 23 Nordeste 0 -- -- 53
2020-06-22 11:00:00 21.8 13 Nordeste 30 Nordeste 0 -- -- 57
2020-06-22 10:00:00 19.9 14 Este 31 Este 0 -- -- 60
2020-06-22 09:00:00 17.4 8 Nordeste 19 Nordeste 0 -- -- 68
2020-06-22 08:00:00 13.3 6 Norte 17 Nordeste 0 -- -- 84
2020-06-22 07:00:00 12.2 7 Norte 25 Este 0 -- -- 85
2020-06-22 06:00:00 12.4 7 Norte 26 Noroeste 0 -- -- 84
2020-06-22 05:00:00 13.1 9 Norte 28 Nordeste 0 -- -- 82
2020-06-22 04:00:00 13.7 6 Norte 28 Noroeste 0 -- -- 79
2020-06-22 03:00:00 13.1 6 Norte 31 Noroeste 0 -- -- 81
2020-06-22 02:00:00 13.7 13 Nordeste 30 Nordeste 0 -- -- 81
2020-06-22 01:00:00 13.7 12 Nordeste 26 Nordeste 0 -- -- 82
2020-06-22 00:00:00 14.4 15 Norte 42 Nordeste 0 -- -- 80
2020-06-21 23:00:00 15.2 13 Nordeste 46 Norte 0 -- -- 78
2020-06-21 22:00:00 15.9 17 Norte 42 Norte 0 -- -- 73
2020-06-21 21:00:00 16.7 17 Norte 43 Nordeste 0 -- -- 69
2020-06-21 20:00:00 18.9 19 Nordeste 46 Nordeste 0 -- -- 62
2020-06-21 19:00:00 20.6 22 Nordeste 44 Este 0 -- -- 57
2020-06-21 18:00:00 21.5 25 Nordeste 46 Nordeste 0 -- -- 53
2020-06-21 17:00:00 23 23 Nordeste 45 Nordeste 0 -- -- 47
2020-06-21 16:00:00 23.8 19 Nordeste 37 Nordeste 0 -- -- 49
2020-06-21 15:00:00 25.3 17 Nordeste 31 Nordeste 0 -- -- 51
2020-06-21 14:00:00 25.7 18 Norte 30 Norte 0 -- -- 49
2020-06-21 13:00:00 25.7 15 Norte 23 Noroeste 0 -- -- 46
2020-06-21 12:00:00 25.5 9 Norte 15 Noroeste 0 -- -- 42
2020-06-21 11:00:00 23.5 0 Calma -- -- 0 -- -- 56
2020-06-21 10:00:00 19.4 0 Calma 4 Norte 0 -- -- 62
2020-06-21 09:00:00 13.2 0 Calma 8 Norte 0 -- -- 79
2020-06-21 08:00:00 8.9 3 Norte 8 Noroeste 0 -- -- 95
2020-06-21 07:00:00 7.2 5 Norte 11 Norte 0 -- -- 97
2020-06-21 06:00:00 7 4 Norte 10 Noroeste 0 -- -- 97
2020-06-21 05:00:00 7.4 3 Norte 9 Norte 0 -- -- 96
2020-06-21 04:00:00 8.3 2 Nordeste 9 Norte 0 -- -- 92
2020-06-21 03:00:00 8.4 4 Norte 12 Norte 0 -- -- 92
2020-06-21 02:00:00 9.2 3 Norte 18 Norte 0 -- -- 89
2020-06-21 01:00:00 10.3 6 Norte 16 Norte 0 -- -- 85
2020-06-21 00:00:00 11.8 6 Norte 19 Norte 0 -- -- 83
2020-06-20 23:00:00 12.8 12 Norte 20 Noroeste 0 -- -- 82
2020-06-20 22:00:00 14.1 5 Norte 13 Norte 0 -- -- 84
2020-06-20 21:00:00 17.1 3 Nordeste 17 Noroeste 0 -- -- 78
2020-06-20 20:00:00 22 11 Noroeste 22 Noroeste 0 -- -- 58
2020-06-20 19:00:00 24.2 10 Noroeste 19 Norte 0 -- -- 54
2020-06-20 18:00:00 24.6 13 Norte 21 Norte 0 -- -- 51
2020-06-20 17:00:00 24.8 8 Sur 19 Sudoeste 0 -- -- 44
2020-06-20 16:00:00 24.9 10 Sur 23 Sudoeste 0 -- -- 43
2020-06-20 15:00:00 23.8 11 Sur 22 Sur 0 -- -- 51
2020-06-20 14:00:00 23.2 12 Sur 21 Sur 0 -- -- 54
2020-06-20 13:00:00 23.4 10 Sur 21 Sur 0 -- -- 60
2020-06-20 12:00:00 22.3 9 Sur 24 Sudoeste 0 -- -- 62
2020-06-20 11:00:00 20.1 2 Nordeste 10 Oeste 0 -- -- 65
2020-06-20 10:00:00 17.6 2 Noroeste 6 Norte 0 -- -- 63
2020-06-20 09:00:00 13.3 0 Calma 5 Noroeste 0 -- -- 80
2020-06-20 08:00:00 10.2 3 Nordeste 6 Este 0 -- -- 99
2020-06-20 07:00:00 7.6 2 Norte 7 Nordeste 0 -- -- 99
2020-06-20 06:00:00 7.8 3 Norte 9 Norte 0 -- -- 98
2020-06-20 05:00:00 8.3 4 Norte 12 Nordeste 0 -- -- 99
2020-06-20 04:00:00 7.8 4 Nordeste 9 Norte 0 -- -- 99
2020-06-20 03:00:00 8.5 3 Norte 11 Nordeste 0 -- -- 98
2020-06-20 02:00:00 9.2 5 Norte 14 Norte 0 -- -- 98
2020-06-20 01:00:00 10 7 Norte 12 Norte 0 -- -- 98
2020-06-20 00:00:00 11 5 Norte 13 Noroeste 0 -- -- 98
2020-06-19 23:00:00 12 4 Norte 11 Nordeste 0 -- -- 96
2020-06-19 22:00:00 13.6 6 Nordeste 21 Nordeste 0 -- -- 90
2020-06-19 21:00:00 15.4 14 Nordeste 27 Nordeste 0 -- -- 82
2020-06-19 20:00:00 18.1 19 Nordeste 32 Nordeste 0 -- -- 71
2020-06-19 19:00:00 19.9 22 Nordeste 30 Nordeste 0 -- -- 65
2020-06-19 18:00:00 19.4 14 Nordeste 28 Este 0 -- -- 66
2020-06-19 17:00:00 24 5 Sudoeste 22 Sur 0 -- -- 45
2020-06-19 16:00:00 22.9 10 Sur 21 Sudoeste 0 -- -- 38
2020-06-19 15:00:00 22.4 8 Sur 22 Sur 0 -- -- 55
2020-06-19 14:00:00 20.8 10 Sur 26 Sur 0 -- -- 61
2020-06-19 13:00:00 21.5 11 Sur 22 Sur 0 -- -- 57
2020-06-19 12:00:00 19.5 7 Sur 18 Sur 0 -- -- 69
2020-06-19 11:00:00 18.4 2 Sudeste 7 Sudeste 0 -- -- 62
2020-06-19 10:00:00 13.8 0 Calma 5 Este 0 -- -- 72
2020-06-19 09:00:00 11 3 Nordeste 6 Noroeste 0 -- -- 81
2020-06-19 08:00:00 6.7 3 Norte 8 Norte 0 -- -- 99
2020-06-19 07:00:00 5 3 Norte 9 Norte 0 -- -- 100
2020-06-19 06:00:00 5.1 6 Norte 11 Norte 0 -- -- 99
2020-06-19 05:00:00 5.8 5 Norte 13 Norte 0 -- -- 99
2020-06-19 04:00:00 6.4 7 Norte 13 Nordeste 0 -- -- 98
2020-06-19 03:00:00 7.3 6 Norte 12 Norte 0 -- -- 98
2020-06-19 02:00:00 7.7 5 Norte 12 Norte 0 -- -- 98
2020-06-19 01:00:00 8.2 4 Norte 15 Nordeste 0 -- -- 98
2020-06-19 00:00:00 8.8 3 Norte 10 Norte 0 -- -- 97
2020-06-18 23:00:00 10.1 0 Calma 10 Este 0 -- -- 94
2020-06-18 22:00:00 11.6 5 Nordeste 23 Nordeste 0 -- -- 87
2020-06-18 21:00:00 13.2 10 Nordeste 23 Nordeste 0 -- -- 78
2020-06-18 20:00:00 15.4 14 Nordeste 25 Nordeste 0 -- -- 70
2020-06-18 19:00:00 16.2 15 Nordeste 28 Nordeste 0 -- -- 70
2020-06-18 18:00:00 19.2 15 Nordeste 26 Este 0 -- -- 60
2020-06-18 17:00:00 18.7 13 Nordeste 24 Nordeste 0 -- -- 64
2020-06-18 16:00:00 17.3 4 Norte 20 Norte 0 -- -- 69
2020-06-18 15:00:00 17.3 7 Norte 17 Norte 0 -- -- 71
2020-06-18 14:00:00 16.6 3 Norte 18 Norte 0 -- -- 76
2020-06-18 13:00:00 16.2 12 Norte 20 Norte 0 -- -- 81
2020-06-18 12:00:00 14.1 3 Noroeste 6 Noroeste 0 -- -- 80
2020-06-18 11:00:00 11.7 0 Calma 4 Norte 0.4 -- -- 97
2020-06-18 10:00:00 9.1 2 Noroeste 12 Este 1.8 -- -- 99
2020-06-18 09:00:00 8.4 4 Norte 17 Nordeste 1.4 -- -- 99
2020-06-18 08:00:00 7.4 2 Oeste 12 Norte 1 -- -- 100
2020-06-18 07:00:00 6.7 3 Norte 13 Nordeste 0.2 -- -- 99
2020-06-18 06:00:00 6.1 3 Noroeste 8 Norte 0 -- -- 99
2020-06-18 05:00:00 6.5 4 Norte 9 Norte 0 -- -- 99
2020-06-18 04:00:00 6.7 2 Noroeste 9 Noroeste 0 -- -- 98
2020-06-18 03:00:00 6.9 5 Norte 10 Norte 0 -- -- 98
2020-06-18 02:00:00 7 5 Norte 9 Noroeste 0 -- -- 97
2020-06-18 01:00:00 7.8 3 Noroeste 18 Norte 0 -- -- 95
2020-06-18 00:00:00 8.8 4 Noroeste 13 Norte 0 -- -- 92
2020-06-17 23:00:00 9.8 6 Norte 19 Norte 0 -- -- 88
2020-06-17 22:00:00 10.5 7 Nordeste 25 Nordeste 0 -- -- 86
2020-06-17 21:00:00 11.4 11 Nordeste 24 Nordeste 0 -- -- 80
2020-06-17 20:00:00 15.2 9 Noroeste 22 Norte 0 -- -- 64
2020-06-17 19:00:00 18.1 10 Norte 22 Norte 0 -- -- 58
2020-06-17 18:00:00 16.4 9 Norte 22 Norte 0 -- -- 64
2020-06-17 17:00:00 19.4 10 Norte 26 Norte 0 -- -- 47
2020-06-17 16:00:00 17.7 9 Norte 26 Noroeste 0 -- -- 55
2020-06-17 15:00:00 16.3 3 Oeste 15 Este 0 -- -- 67
2020-06-17 14:00:00 17.2 5 Norte 34 Norte 0 -- -- 59
2020-06-17 13:00:00 16.3 7 Norte 17 Nordeste 0 -- -- 57
2020-06-17 12:00:00 15.9 6 Norte 20 Norte 0 -- -- 63
2020-06-17 11:00:00 15.2 8 Norte 17 Noroeste 0 -- -- 68
2020-06-17 10:00:00 13.9 12 Norte 18 Norte 0 -- -- 73
2020-06-17 09:00:00 10.8 2 Este 6 Sudeste 0 -- -- 89
2020-06-17 08:00:00 8.8 3 Nordeste 14 Norte 0 -- -- 97
2020-06-17 07:00:00 7.8 4 Norte 9 Norte 0 -- -- 98
2020-06-17 06:00:00 7.7 3 Nordeste 15 Norte 0 -- -- 98
2020-06-17 05:00:00 7.4 7 Nordeste 18 Nordeste 0 -- -- 98
2020-06-17 04:00:00 7.7 7 Nordeste 17 Nordeste 0 -- -- 99
2020-06-17 03:00:00 7.5 9 Nordeste 17 Nordeste 0 -- -- 99
2020-06-17 02:00:00 7.9 9 Norte 18 Nordeste 0 -- -- 98
2020-06-17 01:00:00 8.7 6 Nordeste 14 Nordeste 0 -- -- 98
2020-06-17 00:00:00 9.5 5 Norte 15 Norte 0 -- -- 96
2020-06-16 23:00:00 10.4 5 Nordeste 22 Nordeste 0 -- -- 95
2020-06-16 22:00:00 11.1 11 Nordeste 22 Nordeste 0 -- -- 93
2020-06-16 21:00:00 12.2 4 Norte 23 Nordeste 0 -- -- 93
2020-06-16 20:00:00 12.8 14 Nordeste 24 Nordeste 0 -- -- 82
2020-06-16 19:00:00 13.8 17 Nordeste 26 Nordeste 0 -- -- 81
2020-06-16 18:00:00 15.3 8 Nordeste 21 Nordeste 0 -- -- 83
2020-06-16 17:00:00 11.9 6 Norte 26 Norte 1.2 -- -- 96
2020-06-16 16:00:00 13.3 12 Nordeste 27 Nordeste 1.2 -- -- 90
2020-06-16 15:00:00 15.7 5 Este 20 Este 0.2 -- -- 80
2020-06-16 14:00:00 14.6 4 Nordeste 13 Sur 0 -- -- 82
2020-06-16 13:00:00 17.5 5 Sudoeste 17 Sur 0 -- -- 57
2020-06-16 12:00:00 15.9 11 Sudoeste 18 Sudoeste 0 -- -- 61
2020-06-16 11:00:00 16.4 7 Sur 13 Sur 0 -- -- 69
2020-06-16 10:00:00 13.3 0 Calma 5 Sur 0 -- -- 80
2020-06-16 09:00:00 13 2 Noroeste 8 Noroeste 0 -- -- 80
2020-06-16 08:00:00 10 3 Oeste 11 Noroeste 0 -- -- 94
2020-06-16 07:00:00 9.4 5 Norte 10 Norte 0 -- -- 97
2020-06-16 06:00:00 9.4 3 Noroeste 11 Norte 0 -- -- 95
2020-06-16 05:00:00 9.5 6 Norte 13 Norte 0 -- -- 96
2020-06-16 04:00:00 9.5 6 Norte 13 Noroeste 0 -- -- 96
2020-06-16 03:00:00 9.5 9 Norte 17 Noroeste 0 -- -- 95
2020-06-16 02:00:00 10.1 5 Noroeste 16 Norte 0 -- -- 92
2020-06-16 01:00:00 10.6 6 Norte 14 Nordeste 0 -- -- 88
2020-06-16 00:00:00 10.7 6 Norte 18 Este 0 -- -- 89
2020-06-15 23:00:00 11.8 9 Nordeste 25 Este 0 -- -- 84
2020-06-15 22:00:00 12.4 12 Nordeste 32 Nordeste 0 -- -- 82
2020-06-15 21:00:00 13.5 16 Nordeste 26 Nordeste 0 -- -- 80
2020-06-15 20:00:00 15.4 13 Nordeste 28 Este 0 -- -- 74
2020-06-15 19:00:00 16.6 16 Nordeste 30 Nordeste 0 -- -- 68
2020-06-15 18:00:00 17.1 17 Nordeste 26 Este 0 -- -- 69
2020-06-15 17:00:00 18.8 13 Norte 21 Norte 0 -- -- 69
2020-06-15 16:00:00 19.5 9 Sur 21 Sur 0 -- -- 50
2020-06-15 15:00:00 19 9 Sur 20 Sur 0 -- -- 49
2020-06-15 14:00:00 17.7 9 Sudoeste 18 Sur 0 -- -- 56
2020-06-15 13:00:00 18 10 Sur 21 Sudoeste 0 -- -- 58
2020-06-15 12:00:00 17.2 10 Sur 18 Sudoeste 0 -- -- 65
2020-06-15 11:00:00 15.2 12 Sur 22 Sudoeste 0 -- -- 68
2020-06-15 10:00:00 16.2 2 Norte 5 Nordeste 0 -- -- 69
2020-06-15 09:00:00 11.6 0 Calma 4 Noroeste 0 -- -- 86
2020-06-15 08:00:00 9.5 0 Calma 6 Norte 0 -- -- 96
2020-06-15 07:00:00 8.7 4 Norte 14 Nordeste 0 -- -- 96
2020-06-15 06:00:00 8.5 4 Norte 9 Norte 0 -- -- 97
2020-06-15 05:00:00 8.4 4 Norte 15 Noroeste 0 -- -- 98
2020-06-15 04:00:00 8.2 6 Norte 12 Norte 0 -- -- 98
2020-06-15 03:00:00 8.2 4 Norte 10 Norte 0 -- -- 98
2020-06-15 02:00:00 9.2 3 Norte 14 Norte 0 -- -- 95
2020-06-15 01:00:00 10.6 5 Norte 10 Norte 0 -- -- 92
2020-06-15 00:00:00 11.1 5 Norte 19 Este 0 -- -- 86
2020-06-14 23:00:00 11.8 12 Nordeste 30 Nordeste 0 -- -- 77
2020-06-14 22:00:00 12.2 15 Nordeste 26 Nordeste 0 -- -- 80
2020-06-14 21:00:00 13.2 10 Nordeste 27 Este 0 -- -- 82
2020-06-14 20:00:00 13.7 17 Nordeste 32 Este 0 -- -- 81
2020-06-14 19:00:00 14.5 20 Nordeste 33 Nordeste 0 -- -- 79
2020-06-14 18:00:00 19.6 13 Norte 20 Norte 0 -- -- 57
2020-06-14 17:00:00 19.1 8 Sur 19 Sur 0 -- -- 49
2020-06-14 16:00:00 20.8 5 Sudoeste 20 Sur 0 -- -- 48
2020-06-14 15:00:00 19.6 9 Sur 21 Sudoeste 0 -- -- 48
2020-06-14 14:00:00 19.8 8 Sur 27 Sudoeste 0 -- -- 54
2020-06-14 13:00:00 20.4 8 Sur 22 Sur 0 -- -- 49
2020-06-14 12:00:00 18.6 7 Sur 19 Sudeste 0 -- -- 59
2020-06-14 11:00:00 16.2 9 Sur 17 Sur 0 -- -- 59
2020-06-14 10:00:00 14.4 0 Calma 3 Este 0 -- -- 86
2020-06-14 09:00:00 10.2 0 Calma 4 Noroeste 0 -- -- 99
2020-06-14 08:00:00 8.4 3 Norte 6 Norte 0 -- -- 100
2020-06-14 07:00:00 7.3 0 Calma 5 Noroeste 0 -- -- 100
2020-06-14 06:00:00 7.3 3 Norte 6 Noroeste 0 -- -- 100
2020-06-14 05:00:00 7.2 2 Norte 6 Norte 0 -- -- 100
2020-06-14 04:00:00 7.4 4 Norte 10 Norte 0 -- -- 100
2020-06-14 03:00:00 7.1 4 Norte 8 Norte 0 -- -- 100
2020-06-14 02:00:00 7.4 4 Norte 9 Norte 0 -- -- 100
2020-06-14 01:00:00 7.6 3 Norte 6 Nordeste 0 -- -- 100
2020-06-14 00:00:00 8.1 3 Norte 9 Norte 0 -- -- 100
2020-06-13 23:00:00 8.7 4 Noroeste 11 Norte 0 -- -- 99
2020-06-13 22:00:00 9.7 3 Norte 8 Norte 0 -- -- 97
2020-06-13 21:00:00 11.7 4 Norte 9 Nordeste 0 -- -- 88
2020-06-13 20:00:00 14.6 0 Calma 6 Nordeste 0 -- -- 81
2020-06-13 19:00:00 15 2 Norte 18 Nordeste 0 -- -- 79
2020-06-13 18:00:00 16 13 Nordeste 25 Norte 0 -- -- 74
2020-06-13 17:00:00 13.2 20 Norte 32 Norte 0 -- -- 83
2020-06-13 16:00:00 17.3 9 Sur 16 Sudoeste 0 -- -- 59
2020-06-13 15:00:00 15.8 2 Sudoeste 6 Sur 0 -- -- 60
2020-06-13 14:00:00 15.4 0 Calma 15 Noroeste 0.2 -- -- 70
2020-06-13 13:00:00 13.3 2 Nordeste 12 Nordeste 0.4 -- -- 83
2020-06-13 12:00:00 13 6 Sur 13 Sur 0 -- -- 77
2020-06-13 11:00:00 11.7 3 Sudeste 7 Sur 0 -- -- 87
2020-06-13 10:00:00 11.3 2 Noroeste 4 Noroeste 0 -- -- 98
2020-06-13 09:00:00 9.6 0 Calma 4 Noroeste 0.2 -- -- 100
2020-06-13 08:00:00 8.5 0 Calma 3 Noroeste 0.4 -- -- 100
2020-06-13 07:00:00 7.6 2 Noroeste 9 Norte 0.6 -- -- 100
2020-06-13 06:00:00 7.2 3 Noroeste 10 Noroeste 0 -- -- 100
2020-06-13 05:00:00 6.7 5 Noroeste 14 Noroeste 0 -- -- 100
2020-06-13 04:00:00 6.4 6 Noroeste 13 Noroeste 0 -- -- 100
2020-06-13 03:00:00 6.8 6 Noroeste 16 Oeste 0 -- -- 99
2020-06-13 02:00:00 7.7 4 Oeste 14 Sudoeste 0 -- -- 100
2020-06-13 01:00:00 7.7 4 Oeste 10 Noroeste 0 -- -- 99
2020-06-13 00:00:00 8 3 Noroeste 8 Sudoeste 0 -- -- 99
2020-06-12 23:00:00 8.5 4 Sudoeste 8 Sudoeste 0 -- -- 99
2020-06-12 22:00:00 9.1 3 Sudoeste 10 Sudoeste 0 -- -- 97
2020-06-12 21:00:00 9.8 4 Sur 28 Sudoeste 1.6 -- -- 96
2020-06-12 20:00:00 11.7 10 Sur 44 Sudeste 0.4 -- -- 78
2020-06-12 19:00:00 12.9 6 Sudoeste 29 Este 0 -- -- 66
2020-06-12 18:00:00 13.6 7 Sur 24 Sur 0 -- -- 64
2020-06-12 17:00:00 12.2 9 Sur 35 Sudeste 0 -- -- 71
2020-06-12 16:00:00 12.4 9 Sur 39 Este 0 -- -- 71
2020-06-12 15:00:00 11.7 9 Sur 30 Este 0.2 -- -- 80
2020-06-12 14:00:00 11.8 7 Sur 35 Sudoeste 0 -- -- 67
2020-06-12 13:00:00 10.5 9 Sudoeste 23 Sudoeste 0 -- -- 73
2020-06-12 12:00:00 10.3 9 Sur 36 Sudoeste 0 -- -- 75
2020-06-12 11:00:00 10.4 12 Sudoeste 40 Sudoeste 0 -- -- 72
2020-06-12 10:00:00 10 16 Sudoeste 33 Sudoeste 0 -- -- 71
2020-06-12 09:00:00 9.6 17 Sudoeste 32 Sur 0 -- -- 77
2020-06-12 08:00:00 8.7 13 Sur 28 Sudoeste 0 -- -- 94
2020-06-12 07:00:00 5.7 4 Sur 16 Norte 0 -- -- 100
2020-06-12 06:00:00 5.5 6 Noroeste 14 Norte 0 -- -- 100
2020-06-12 05:00:00 5.8 5 Noroeste 10 Noroeste 0 -- -- 100
2020-06-12 04:00:00 5.6 0 Calma 6 Oeste 0 -- -- 100
2020-06-12 03:00:00 5.8 0 Calma 8 Norte 0 -- -- 100
2020-06-12 02:00:00 6.1 4 Norte 12 Nordeste 0 -- -- 100
2020-06-12 01:00:00 6.9 6 Norte 12 Norte 0 -- -- 100
2020-06-12 00:00:00 7.3 6 Norte 19 Este 1 -- -- 100
2020-06-11 23:00:00 7.7 6 Norte 36 Noroeste 1 -- -- 100
2020-06-11 22:00:00 7.7 6 Norte 16 Nordeste 0 -- -- 100
2020-06-11 21:00:00 7.8 6 Nordeste 34 Noroeste 9.8 -- -- 99
2020-06-11 20:00:00 9.2 23 Norte 47 Norte 0 -- -- 93
2020-06-11 19:00:00 12.4 6 Norte 19 Nordeste 0 -- -- 93
2020-06-11 18:00:00 12.8 6 Sur 15 Sudoeste 0.8 -- -- 93
2020-06-11 17:00:00 14.8 4 Sur 24 Oeste 0 -- -- 78
2020-06-11 16:00:00 14.5 9 Sudoeste 22 Sur 0 -- -- 76
2020-06-11 15:00:00 12.4 6 Sudoeste 19 Sur 0.4 -- -- 89
2020-06-11 14:00:00 12 7 Sur 24 Sudoeste 0.6 -- -- 90
2020-06-11 13:00:00 12.8 11 Sudoeste 24 Sur 0 -- -- 78
2020-06-11 12:00:00 13.1 12 Sudoeste 28 Sudoeste 0.4 -- -- 77
2020-06-11 11:00:00 14 18 Sudoeste 35 Sudoeste 0 -- -- 64
2020-06-11 10:00:00 13.4 9 Sur 21 Sudoeste 0 -- -- 69
2020-06-11 09:00:00 10.5 3 Noroeste 9 Noroeste 0 -- -- 97
2020-06-11 08:00:00 8.9 0 Calma 9 Noroeste 0 -- -- 99
2020-06-11 07:00:00 8.2 0 Calma 3 Noroeste 0 -- -- 100
2020-06-11 06:00:00 8.2 0 Calma 4 Noroeste 0 -- -- 99
2020-06-11 05:00:00 8.3 0 Calma 6 Norte 0 -- -- 99
2020-06-11 04:00:00 8.4 2 Noroeste 4 Noroeste 0.2 -- -- 98
2020-06-11 03:00:00 8.5 0 Calma 14 Norte 0 -- -- 97
2020-06-11 02:00:00 8.6 4 Norte 13 Nordeste 0 -- -- 96
2020-06-11 01:00:00 8.9 9 Nordeste 16 Nordeste 0.2 -- -- 93
2020-06-11 00:00:00 9.4 4 Norte 19 Nordeste 0 -- -- 89
2020-06-10 23:00:00 10.1 9 Nordeste 17 Nordeste 0 -- -- 88
2020-06-10 22:00:00 10.6 4 Nordeste 18 Nordeste 0 -- -- 88
2020-06-10 21:00:00 11.3 6 Nordeste 17 Nordeste 0 -- -- 83
2020-06-10 20:00:00 12.1 12 Nordeste 23 Norte 0 -- -- 79
2020-06-10 19:00:00 13.2 16 Norte 28 Norte 0 -- -- 72
2020-06-10 18:00:00 13.6 14 Nordeste 35 Nordeste 0 -- -- 69
2020-06-10 17:00:00 14.4 13 Nordeste 28 Nordeste 0 -- -- 68
2020-06-10 16:00:00 15.6 14 Nordeste 33 Norte 0 -- -- 61
2020-06-10 15:00:00 16.2 13 Nordeste 37 Nordeste 0 -- -- 63
2020-06-10 14:00:00 17.9 22 Nordeste 33 Este 0 -- -- 54
2020-06-10 13:00:00 17.4 23 Nordeste 35 Nordeste 0 -- -- 53
2020-06-10 12:00:00 16.6 23 Nordeste 39 Este 0 -- -- 52
2020-06-10 11:00:00 15.7 21 Nordeste 40 Nordeste 0 -- -- 60
2020-06-10 10:00:00 14.3 14 Nordeste 33 Este 0 -- -- 64
2020-06-10 09:00:00 12.8 9 Nordeste 17 Norte 0 -- -- 75
2020-06-10 08:00:00 9.3 7 Norte 21 Norte 0 -- -- 85
2020-06-10 07:00:00 7.7 10 Nordeste 23 Nordeste 0 -- -- 89
2020-06-10 06:00:00 7.6 10 Norte 28 Norte 0 -- -- 89
2020-06-10 05:00:00 8 16 Norte 28 Norte 0 -- -- 92
2020-06-10 04:00:00 8.7 10 Norte 20 Norte 0 -- -- 92
2020-06-10 03:00:00 9.3 11 Norte 23 Norte 0 -- -- 90
2020-06-10 02:00:00 9 9 Norte 20 Norte 0 -- -- 93
2020-06-10 01:00:00 9.3 9 Nordeste 23 Nordeste 0 -- -- 92
2020-06-10 00:00:00 9.5 8 Nordeste 23 Norte 0 -- -- 90
2020-06-09 23:00:00 10 15 Nordeste 31 Norte 0 -- -- 81
2020-06-09 22:00:00 9.5 14 Nordeste 29 Nordeste 0 -- -- 84
2020-06-09 21:00:00 10.1 17 Nordeste 34 Nordeste 0 -- -- 79
2020-06-09 20:00:00 9.6 16 Nordeste 27 Nordeste 0.2 -- -- 89
2020-06-09 19:00:00 10.2 10 Nordeste 30 Norte 0 -- -- 88
2020-06-09 18:00:00 11.3 18 Nordeste 30 Nordeste 0 -- -- 77
2020-06-09 17:00:00 11.8 15 Norte 40 Noroeste 0 -- -- 74
2020-06-09 16:00:00 13.4 19 Nordeste 38 Nordeste 0 -- -- 65
2020-06-09 15:00:00 13.1 14 Nordeste 35 Nordeste 0 -- -- 64
2020-06-09 14:00:00 14 13 Norte 42 Nordeste 0 -- -- 64
2020-06-09 13:00:00 12.9 15 Nordeste 34 Este 0 -- -- 71
2020-06-09 12:00:00 14.2 26 Nordeste 38 Nordeste 0 -- -- 66
2020-06-09 11:00:00 12.1 20 Nordeste 33 Nordeste 0 -- -- 75
2020-06-09 10:00:00 10 12 Nordeste 26 Norte 0 -- -- 84
2020-06-09 09:00:00 8.5 14 Nordeste 30 Nordeste 0 -- -- 90
2020-06-09 08:00:00 7.7 17 Nordeste 29 Nordeste 0 -- -- 94
2020-06-09 07:00:00 7.2 13 Nordeste 24 Norte 0 -- -- 98
2020-06-09 06:00:00 7.1 10 Norte 20 Nordeste 0 -- -- 98
2020-06-09 05:00:00 7 9 Norte 22 Norte 0 -- -- 98
2020-06-09 04:00:00 7.4 8 Nordeste 26 Nordeste 0.2 -- -- 98
2020-06-09 03:00:00 7.7 9 Norte 20 Norte 0.2 -- -- 98
2020-06-09 02:00:00 7.9 12 Norte 21 Norte 0.4 -- -- 98
2020-06-09 01:00:00 8 9 Nordeste 20 Nordeste 0 -- -- 97
2020-06-09 00:00:00 8.2 9 Nordeste 19 Nordeste 0 -- -- 97
2020-06-08 23:00:00 8.5 6 Norte 20 Nordeste 0.4 -- -- 96
2020-06-08 22:00:00 8.8 9 Nordeste 19 Nordeste 0.2 -- -- 94
2020-06-08 21:00:00 9.6 10 Nordeste 29 Nordeste 0 -- -- 87
2020-06-08 20:00:00 10.5 12 Nordeste 29 Nordeste 0 -- -- 81
2020-06-08 19:00:00 11.6 13 Nordeste 32 Norte 0 -- -- 75
2020-06-08 18:00:00 13.3 14 Norte 34 Norte 0 -- -- 66
2020-06-08 17:00:00 16.3 16 Norte 36 Norte 0 -- -- 57
2020-06-08 16:00:00 16.7 19 Norte 34 Norte 0 -- -- 59
2020-06-08 15:00:00 17.5 13 Norte 30 Nordeste 0 -- -- 60
2020-06-08 14:00:00 16.9 19 Nordeste 32 Nordeste 0 -- -- 55
2020-06-08 13:00:00 15.9 16 Norte 35 Nordeste 0 -- -- 58
2020-06-08 12:00:00 16.1 14 Nordeste 36 Este 0 -- -- 54
2020-06-08 11:00:00 15 22 Nordeste 37 Nordeste 0 -- -- 58
2020-06-08 10:00:00 13.8 13 Norte 38 Norte 0 -- -- 65
2020-06-08 09:00:00 11 18 Norte 34 Norte 0 -- -- 70
2020-06-08 08:00:00 7.3 11 Norte 23 Norte 0 -- -- 86
2020-06-08 07:00:00 6.1 8 Nordeste 20 Norte 0 -- -- 90
2020-06-08 06:00:00 6.9 10 Norte 27 Norte 0 -- -- 84
2020-06-08 05:00:00 7.1 12 Norte 29 Noroeste 0 -- -- 85
2020-06-08 04:00:00 6.9 13 Norte 29 Nordeste 0 -- -- 86
2020-06-08 03:00:00 7.4 16 Norte 32 Norte 0 -- -- 86
2020-06-08 02:00:00 7.2 15 Norte 32 Norte 0 -- -- 91
2020-06-08 01:00:00 7.4 17 Norte 32 Noroeste 0 -- -- 87
2020-06-08 00:00:00 7.6 18 Norte 34 Nordeste 0 -- -- 84
2020-06-07 23:00:00 7.6 13 Nordeste 35 Nordeste 0 -- -- 86
2020-06-07 22:00:00 8 17 Norte 33 Nordeste 0 -- -- 84
2020-06-07 21:00:00 8.4 12 Nordeste 30 Nordeste 0 -- -- 85
2020-06-07 20:00:00 9 12 Nordeste 45 Nordeste 0 -- -- 84
2020-06-07 19:00:00 9.8 15 Nordeste 41 Nordeste 0 -- -- 79
2020-06-07 18:00:00 10.4 21 Nordeste 43 Nordeste 0 -- -- 78
2020-06-07 17:00:00 11 22 Nordeste 47 Nordeste 0 -- -- 79
2020-06-07 16:00:00 11.6 24 Nordeste 59 Nordeste 0 -- -- 77
2020-06-07 15:00:00 12.9 29 Nordeste 49 Nordeste 0 -- -- 72
2020-06-07 14:00:00 12.8 30 Nordeste 46 Este 0 -- -- 73
2020-06-07 13:00:00 12.9 24 Nordeste 46 Nordeste 0 -- -- 77
2020-06-07 12:00:00 12.1 19 Nordeste 38 Nordeste 0 -- -- 81
2020-06-07 11:00:00 11.7 19 Nordeste 38 Nordeste 0 -- -- 84
2020-06-07 10:00:00 11.6 9 Nordeste 26 Este 0 -- -- 86
2020-06-07 09:00:00 10.1 9 Nordeste 28 Nordeste 0 -- -- 93
2020-06-07 08:00:00 10 12 Nordeste 33 Nordeste 0.2 -- -- 95
2020-06-07 07:00:00 8.9 15 Nordeste 32 Noroeste 0 -- -- 99
2020-06-07 06:00:00 9.8 12 Norte 22 Nordeste 0 -- -- 100
2020-06-07 05:00:00 9.8 7 Nordeste 23 Nordeste 0 -- -- 99
2020-06-07 04:00:00 10 11 Nordeste 27 Nordeste 0 -- -- 100
2020-06-07 03:00:00 10.4 15 Norte 31 Nordeste 0 -- -- 100
2020-06-07 02:00:00 10.6 12 Norte 21 Norte 0 -- -- 100
2020-06-07 01:00:00 10.4 6 Norte 17 Norte 0 -- -- 100
2020-06-07 00:00:00 10.3 6 Nordeste 15 Noroeste 0 -- -- 100
2020-06-06 23:00:00 11.1 7 Nordeste 13 Este 1.2 -- -- 100
2020-06-06 22:00:00 11.3 8 Nordeste 24 Este 3 -- -- 99
2020-06-06 21:00:00 12 9 Nordeste 30 Nordeste 2.6 -- -- 98
2020-06-06 20:00:00 12.6 10 Nordeste 26 Este 1.8 -- -- 97
2020-06-06 19:00:00 14.4 17 Nordeste 41 Nordeste 0 -- -- 87
2020-06-06 18:00:00 18 12 Nordeste 25 Nordeste 0 -- -- 74
2020-06-06 17:00:00 19.3 12 Nordeste 34 Este 0 -- -- 74
2020-06-06 16:00:00 20.6 25 Norte 34 Norte 0 -- -- 65
2020-06-06 15:00:00 21.3 5 Sudoeste 20 Sudoeste 0 -- -- 55
2020-06-06 14:00:00 21.8 10 Sur 18 Oeste 0 -- -- 50
2020-06-06 13:00:00 19 8 Sur 15 Sudoeste 0 -- -- 59
2020-06-06 12:00:00 17.8 8 Sur 20 Sur 0 -- -- 66
2020-06-06 11:00:00 16.1 10 Sur 19 Sur 0 -- -- 73
2020-06-06 10:00:00 15.2 0 Calma 8 Sur 0 -- -- 79
2020-06-06 09:00:00 9.8 0 Calma 5 Norte 0 -- -- 97
2020-06-06 08:00:00 7.6 2 Norte 8 Noroeste 0 -- -- 100
2020-06-06 07:00:00 5.8 3 Norte 9 Norte 0 -- -- 100
2020-06-06 06:00:00 5.8 4 Norte 10 Norte 0 -- -- 100
2020-06-06 05:00:00 6 3 Norte 8 Norte 0 -- -- 100
2020-06-06 04:00:00 6.3 4 Norte 10 Norte 0 -- -- 100
2020-06-06 03:00:00 7.2 5 Norte 14 Norte 0 -- -- 100
2020-06-06 02:00:00 7.6 5 Norte 12 Norte 0 -- -- 100
2020-06-06 01:00:00 8.1 5 Norte 11 Nordeste 0 -- -- 99
2020-06-06 00:00:00 8.7 6 Norte 13 Norte 0 -- -- 99
2020-06-05 23:00:00 9.5 3 Nordeste 14 Norte 0 -- -- 97
2020-06-05 22:00:00 10.4 2 Norte 11 Norte 0 -- -- 95
2020-06-05 21:00:00 12.5 4 Noroeste 12 Noroeste 0 -- -- 81
2020-06-05 20:00:00 15.3 5 Noroeste 13 Noroeste 0 -- -- 68
2020-06-05 19:00:00 14.5 3 Noroeste 27 Noroeste 0 -- -- 74
2020-06-05 18:00:00 17.1 13 Norte 31 Norte 0 -- -- 69
2020-06-05 17:00:00 18.7 12 Noroeste 26 Norte 0 -- -- 64
2020-06-05 16:00:00 17.8 14 Norte 24 Norte 0 -- -- 74
2020-06-05 15:00:00 16 13 Norte 32 Norte 0 -- -- 75
2020-06-05 14:00:00 14.7 8 Norte 23 Norte 0 -- -- 77
2020-06-05 13:00:00 12.6 12 Norte 24 Norte 0 -- -- 87
2020-06-05 12:00:00 12.8 13 Norte 25 Noroeste 0 -- -- 88
2020-06-05 11:00:00 11.9 4 Norte 13 Nordeste 0 -- -- 89
2020-06-05 10:00:00 10.4 7 Norte 14 Norte 0 -- -- 95
2020-06-05 09:00:00 8.6 2 Nordeste 14 Norte 0 -- -- 97
2020-06-05 08:00:00 7.8 5 Norte 18 Norte 0 -- -- 100
2020-06-05 07:00:00 7.5 7 Norte 17 Nordeste 0 -- -- 99
2020-06-05 06:00:00 7.7 3 Norte 20 Nordeste 0 -- -- 99
2020-06-05 05:00:00 8.2 0 Calma 8 Este 0.2 -- -- 100
2020-06-05 04:00:00 8.2 2 Este 8 Noroeste 0.6 -- -- 99
2020-06-05 03:00:00 8.2 5 Norte 16 Norte 0 -- -- 98
2020-06-05 02:00:00 8.3 9 Nordeste 36 Nordeste 0 -- -- 98
2020-06-05 01:00:00 8.9 7 Nordeste 29 Este 0.2 -- -- 99
2020-06-05 00:00:00 8.7 7 Norte 15 Norte 0.4 -- -- 100
2020-06-04 23:00:00 9.1 6 Norte 15 Nordeste 0.4 -- -- 100
2020-06-04 22:00:00 9.2 6 Nordeste 23 Nordeste 1 -- -- 99
2020-06-04 21:00:00 9.2 10 Nordeste 20 Nordeste 0 -- -- 99
2020-06-04 20:00:00 9.8 13 Nordeste 20 Este 0.6 -- -- 97
2020-06-04 19:00:00 10.8 4 Norte 23 Noroeste 0.2 -- -- 93
2020-06-04 18:00:00 10.6 7 Norte 21 Noroeste 0.6 -- -- 93
2020-06-04 17:00:00 11.7 5 Nordeste 14 Nordeste 0.6 -- -- 95
2020-06-04 16:00:00 11.4 5 Sur 24 Norte 0.2 -- -- 89
2020-06-04 15:00:00 11.5 5 Este 21 Este 0.2 -- -- 84
2020-06-04 14:00:00 12 12 Norte 21 Noroeste 0.2 -- -- 92
2020-06-04 13:00:00 11.9 8 Norte 19 Este 0 -- -- 88
2020-06-04 12:00:00 11.6 5 Nordeste 15 Nordeste 0 -- -- 95
2020-06-04 11:00:00 10.5 4 Norte 11 Norte 0.4 -- -- 100
2020-06-04 10:00:00 9.9 0 Calma 4 Noroeste 0 -- -- 100
2020-06-04 09:00:00 9.1 0 Calma 10 Norte 0 -- -- 100
2020-06-04 08:00:00 8.3 5 Norte 10 Nordeste 0 -- -- 100
2020-06-04 07:00:00 8 8 Norte 16 Norte 0 -- -- 100
2020-06-04 06:00:00 8 3 Nordeste 13 Norte 0 -- -- 100
2020-06-04 05:00:00 8.5 2 Nordeste 6 Norte 0 -- -- 100
2020-06-04 04:00:00 8.8 4 Nordeste 11 Nordeste 0 -- -- 100
2020-06-04 03:00:00 9.2 4 Nordeste 13 Norte 0 -- -- 100
2020-06-04 02:00:00 9.9 3 Norte 15 Norte 0 -- -- 100
2020-06-04 01:00:00 10.2 5 Norte 13 Nordeste 0 -- -- 100
2020-06-04 00:00:00 10.7 5 Norte 12 Norte 0 -- -- 100